KMIW/MIW METAR and TAF weather

Enter ICAO airport designator
Station Type Date Time Source
KMIW METAR 2023/02/05 23:53 UTC NOAA

KMIW 052353Z AUTO 29006KT 10SM CLR M02/M04 A3011 RMK AO2 SLP210 T10171044 10011 21017 53015


Station Type Date Time Source
KMIW Decoded METAR 2023/02/05 23:53 UTC NOAA

MARSHALLTOWN MUNICIPAL AIRPORT , IA, United States (KMIW) 42-07N 92-55W 296M
Feb 05, 2023 - 06:53 PM EST / 2023.02.05 2353 UTC
Wind: from the WNW (290 degrees) at 7 MPH (6 KT):0
Visibility: 10 mile(s):0
Sky conditions: clear
Temperature: 28.9 F (-1.7 C)
Windchill: 21 F (-6 C):1
Dew Point: 24.1 F (-4.4 C)
Relative Humidity: 81%
Pressure (altimeter): 30.11 in. Hg (1019 hPa)
Pressure tendency: 0.04 inches (1.5 hPa) higher than three hours ago
ob: KMIW 052353Z AUTO 29006KT 10SM CLR M02/M04 A3011 RMK AO2 SLP210 T10171044 10011 21017 53015
cycle: 0

Station Type Date Time Source
KMIW TAF UTC NOAA

Error!

Example: see airport list